Lincoln, United Kingdom
Current Conditions -  °F | °C
As of 6:50 PM on Thursday 27 Nov 2014 (Local Time) from EGXW Reporting Station
Light Fog Light Fog  
Wind Chill: 43°   Ceiling: 22000
Heat Index: 43°   Visibility: 0.25mi
Dew Point: 41°   Wind: 2mph
Humidity: 93%   Direction: 160°SSE
Pressure: 29.59"   Gusts: NA
Location:  53.23°N, 0.54°W
Report Text: EGXW 271850Z 16002KT 0400 BCFG FEW070 SCT110 BKN220 06/05 Q1002 RED TEMPO 8000 BR BLU
Loading
Personal Weather Stations






























Interactive Weather Map New forecast layout! Learn more

10-Day Weather Forecast

Advertisements
Track Severe Weather on mobile